Wednesday, February 21, 2018, 8:18 PM EST
Back to Local

KFZY, Fulton Oswego County Airport

Location: Fulton, NY, United States Lat: 43.35
Local Time: 8:18 PM EST ( 1:18 GMT) Lon: -76.383
Time Zone: US/Eastern Elev: 475 ft

Show me the last for .
Show Decoded

2018-02-21 20:09 METAR KFZY 220109Z AUTO 28008KT 10SM SCT024 OVC030 02/ A3055 RMK AO2 T0017 =
2018-02-21 19:54 METAR KFZY 220054Z AUTO 29009KT 10SM BKN024 BKN031 02/ A3054 RMK AO2 SLP346
                 T0017 =
2018-02-21 19:43 METAR KFZY 220043Z AUTO 29010KT 10SM BKN025 BKN075 02/ A3054 RMK AO2 T0017 =
2018-02-21 18:54 METAR KFZY 212354Z AUTO 28007KT 10SM FEW015 OVC075 02/ A3052 RMK AO2 SLP339
                 60000 T0022 10056 20022 53035 =
2018-02-21 17:54 METAR KFZY 212254Z AUTO 28011KT 10SM FEW015 OVC065 03/ A3048 RMK AO2 SLP325
                 T0028 =
2018-02-21 17:28 METAR KFZY 212228Z AUTO 29010KT 10SM SCT014 OVC065 03/ A3047 RMK AO2 T0028 =
2018-02-21 16:54 METAR KFZY 212154Z AUTO 30014KT 10SM BKN013 BKN060 OVC070 03/ A3044 RMK AO2
                 RAB08E18 SLP310 P0000 T0028 =
2018-02-21 15:54 METAR KFZY 212054Z AUTO 28011KT 10SM BKN013 OVC044 03/ A3042 RMK AO2 RAE27
                 SLP303 P0000 60000 T0033 53030 =
2018-02-21 15:34 METAR KFZY 212034Z AUTO 28013KT 10SM BKN013 OVC040 03/ A3041 RMK AO2 RAE27 P0000
                 T0033 =
2018-02-21 14:54 METAR KFZY 211954Z AUTO 29013KT 10SM -RA SCT011 OVC040 03/ A3037 RMK AO2 RAB47
                 SLP286 P0000 T0033 =
2018-02-21 14:21 METAR KFZY 211921Z AUTO 28010G19KT 10SM BKN010 OVC035 04/ A3035 RMK AO2 T0039 $
                 =
2018-02-21 13:54 METAR KFZY 211854Z AUTO 28013KT 10SM OVC008 04/ A3033 RMK AO2 RAE14 CIG 006V013
                 SLP272 P0000 T0039 $ =
2018-02-21 13:45 METAR KFZY 211845Z AUTO 27011KT 10SM OVC006 04/ A3032 RMK AO2 RAE14 CIG 005V009
                 PRESRR P0000 T0039 $ =
2018-02-21 12:54 METAR KFZY 211754Z AUTO 27010KT 9SM -RA OVC005 06/ A3027 RMK AO2 PRESRR SLP253
                 P0001 60003 T0056 10211 20056 51045 $ =
2018-02-21 12:17 METAR KFZY 211717Z AUTO 29012KT 3SM -RA BR OVC005 06/06 A3025 RMK AO2 P0001
                 T00610056 $ =
2018-02-21 12:04 METAR KFZY 211704Z AUTO 30015KT 2 1/2SM -RA BR OVC004 07/06 A3024 RMK AO2 P0000
                 T00670056 =
2018-02-21 11:54 METAR KFZY 211654Z AUTO 31012KT 2 1/2SM -RA BR OVC005 07/06 A3023 RMK AO2 RAB12
                 SLP237 P0002 T00720061 =
2018-02-21 11:49 METAR KFZY 211649Z AUTO 29013KT 2 1/2SM -RA BR OVC005 07/06 A3022 RMK AO2 RAB12
                 P0002 =
2018-02-21 11:42 METAR KFZY 211642Z AUTO 30011G19KT 3SM -RA BR OVC005 08/07 A3021 RMK AO2 RAB12
                 P0001 T00780067 =
2018-02-21 11:37 METAR KFZY 211637Z AUTO 32013G23KT 2 1/2SM -RA BR OVC006 08/07 A3021 RMK AO2
                 RAB12 P0001 T00780067 =
2018-02-21 11:13 METAR KFZY 211613Z AUTO 30016KT 7SM -RA BKN006 BKN038 OVC048 11/09 A3018 RMK AO2
                 RAB12 CIG 006V011 PRESRR P0000 T01060089 =
2018-02-21 10:54 METAR KFZY 211554Z AUTO 30014KT 10SM FEW038 BKN049 BKN065 14/11 A3014 RMK AO2
                 SLP206 T01390106 =
2018-02-21 09:54 METAR KFZY 211454Z AUTO 22010KT 10SM BKN049 20/11 A3008 RMK AO2 SLP184 T02000111
                 53002 =
2018-02-21 08:54 METAR KFZY 211354Z AUTO 20010KT 10SM SCT100 19/12 A3006 RMK AO2 SLP180 T01940117
                 =
2018-02-21 07:54 METAR KFZY 211254Z AUTO 18010KT 10SM CLR 17/11 A3006 RMK AO2 SLP179 T01720111 =
2018-02-21 06:54 METAR KFZY 211154Z AUTO 18009KT 10SM SCT060 16/11 A3007 RMK AO2 SLP183 70012
                 T01610111 10172 20150 58004 =
2018-02-21 05:54 METAR KFZY 211054Z AUTO 18008KT 10SM CLR 16/11 A3008 RMK AO2 SLP186 T01610111 =
2018-02-21 04:54 METAR KFZY 210954Z AUTO 19008KT 10SM CLR 17/11 A3008 RMK AO2 SLP186 T01670111 =
2018-02-21 03:54 METAR KFZY 210854Z AUTO 19010KT 10SM CLR 17/11 A3008 RMK AO2 SLP187 T01670111
                 58011 =
2018-02-21 02:54 METAR KFZY 210754Z AUTO 18011KT 10SM CLR 17/11 A3009 RMK AO2 SLP190 T01670111 =
2018-02-21 01:54 METAR KFZY 210654Z AUTO 18009KT 10SM CLR 16/11 A3011 RMK AO2 SLP197 T01610111 =
2018-02-21 00:54 METAR KFZY 210554Z AUTO 19010KT 10SM OVC085 17/12 A3012 RMK AO2 SLP198 60000
                 T01720117 10178 20100 55003 =
2018-02-20 23:54 METAR KFZY 210454Z AUTO 18010KT 10SM BKN075 OVC090 17/12 A3011 RMK AO2 SLP196
                 T01720117 401720067 =
2018-02-20 22:54 METAR KFZY 210354Z AUTO 00000KT 10SM OVC075 12/11 A3010 RMK AO2 SLP195 T01170111
                 =
2018-02-20 21:54 METAR KFZY 210254Z AUTO 00000KT 8SM OVC070 11/11 A3012 RMK AO2 SLP202 60000
                 T01110106 58001 =
2018-02-20 21:36 METAR KFZY 210236Z AUTO 14003KT 4SM BR OVC070 11/11 A3012 RMK AO2 T01110106 =
2018-02-20 21:28 METAR KFZY 210228Z AUTO 00000KT 1 3/4SM BR BKN065 OVC090 11/11 A3012 RMK AO2 VIS
                 3/4V5 T01060106 =
2018-02-20 21:16 METAR KFZY 210216Z AUTO 00000KT 3SM BR SCT065 OVC085 11/11 A3013 RMK AO2
                 T01110106 =
2018-02-20 21:12 METAR KFZY 210212Z AUTO 00000KT 1 1/4SM BR SCT065 OVC090 11/11 A3013 RMK AO2
                 T01110106 =
2018-02-20 21:05 METAR KFZY 210205Z AUTO 14003KT 3/4SM BR FEW060 OVC090 11/10 A3013 RMK AO2
                 T01060100 =
2018-02-20 21:01 METAR KFZY 210201Z AUTO 14003KT 1 1/4SM BR SCT060 OVC085 11/10 A3013 RMK AO2 VIS
                 3/4V2 T01060100 =
2018-02-20 20:54 METAR KFZY 210154Z AUTO VRB04KT 2SM BR SCT060 OVC085 11/11 A3013 RMK AO2 VIS
                 3/4V4 SLP203 T01110106 =
2018-02-20 20:47 METAR KFZY 210147Z AUTO 13004KT 2 1/2SM BR BKN060 BKN085 12/11 A3013 RMK AO2 VIS
                 1 3/4V5 T01170111 =
2018-02-20 20:34 METAR KFZY 210134Z AUTO 12003KT 3SM BR SCT055 BKN085 12/11 A3013 RMK AO2
                 T01170111 =

Support USWX by starting your Amazon purchase here.